Tartagal, Argentina
Current Conditions -  °F | °C
As of 5:00 PM on Thursday 20 Nov 2014 (Local Time) from SARE Reporting Station
Broken Clouds Broken Clouds  
Wind Chill: 86°   Ceiling: 20000
Heat Index: 89°   Visibility: 6mi
Dew Point: 68°   Wind: 3mph
Humidity: 55%   Direction: 110°ESE
Pressure: 29.77"   Gusts: NA
Location:  28.67°S, 59.87°W
Report Text: SARE 202000Z 11003KT 9999 SCT025 BKN200 30/20 Q1008
Loading
Personal Weather Stations






























Interactive Weather Map New forecast layout! Learn more

10-Day Weather Forecast

Advertisements
Track Severe Weather on mobile